createdAt,value
2018-08-22T00:00:19.021Z,98097.08
2018-08-22T00:05:14.490Z,98095.40
2018-08-22T00:07:42.757Z,98102.05
2018-08-22T00:10:11.074Z,98099.87
2018-08-22T00:12:39.330Z,98101.02
2018-08-22T00:15:07.809Z,98102.36
2018-08-22T00:17:36.010Z,98098.93
2018-08-22T00:20:04.214Z,98091.74
2018-08-22T00:22:32.564Z,98092.55
2018-08-22T00:25:00.794Z,98088.07
2018-08-22T00:27:29.065Z,98091.66
2018-08-22T00:29:57.290Z,98090.89
2018-08-22T00:32:25.462Z,98083.03
2018-08-22T00:34:53.657Z,98084.23
2018-08-22T00:37:21.848Z,98091.69
2018-08-22T00:39:50.110Z,98088.39
2018-08-22T00:42:18.397Z,98089.16
2018-08-22T00:44:46.689Z,98079.12
2018-08-22T00:47:14.974Z,98083.70
2018-08-22T00:49:43.165Z,98080.92
2018-08-22T00:52:11.379Z,98088.27
2018-08-22T00:54:39.766Z,98084.41
2018-08-22T00:57:08.095Z,98088.33
2018-08-22T00:59:36.326Z,98090.15
2018-08-22T01:02:04.606Z,98093.86
2018-08-22T01:04:32.942Z,98092.04
2018-08-22T01:07:01.174Z,98085.94
2018-08-22T01:09:29.364Z,98081.85
2018-08-22T01:11:57.685Z,98085.24
2018-08-22T01:14:25.874Z,98084.66
2018-08-22T01:16:54.090Z,98086.64
2018-08-22T01:19:22.319Z,98083.23
2018-08-22T01:21:50.517Z,98083.39
2018-08-22T01:24:18.734Z,98082.50
2018-08-22T01:26:46.939Z,98078.27
2018-08-22T01:29:15.172Z,98080.06
2018-08-22T01:31:43.362Z,98079.44
2018-08-22T01:34:11.600Z,98076.35
2018-08-22T01:36:39.817Z,98072.19
2018-08-22T01:39:08.386Z,98077.17
2018-08-22T01:41:36.584Z,98071.01
2018-08-22T01:44:04.798Z,98072.97
2018-08-22T01:46:33.161Z,98063.78
2018-08-22T01:49:01.366Z,98070.78
2018-08-22T01:51:29.570Z,98068.51
2018-08-22T01:53:57.773Z,98065.93
2018-08-22T01:56:25.965Z,98068.73
2018-08-22T01:58:54.203Z,98070.39
2018-08-22T02:01:22.394Z,98063.55
2018-08-22T02:03:50.907Z,98063.33
2018-08-22T02:06:19.194Z,98065.48
2018-08-22T02:08:47.390Z,98065.48
2018-08-22T02:11:16.770Z,98068.70
2018-08-22T02:13:45.070Z,98064.30
2018-08-22T02:16:13.269Z,98064.92
2018-08-22T02:18:41.550Z,98064.80
2018-08-22T02:21:09.741Z,98062.65
2018-08-22T02:23:37.929Z,98063.13
2018-08-22T02:26:06.151Z,98060.95
2018-08-22T02:28:34.359Z,98061.83
2018-08-22T02:31:09.314Z,98060.81
2018-08-22T02:33:37.519Z,98063.10
2018-08-22T02:36:05.855Z,98059.41
2018-08-22T02:38:34.074Z,98058.98
2018-08-22T02:41:02.311Z,98058.02
2018-08-22T02:43:30.586Z,98055.69
2018-08-22T02:45:58.807Z,98057.17
2018-08-22T02:48:27.055Z,98052.90
2018-08-22T02:50:55.274Z,98053.17
2018-08-22T02:53:23.487Z,98052.08
2018-08-22T02:55:51.728Z,98057.37
2018-08-22T02:58:19.920Z,98056.36
2018-08-22T03:00:48.218Z,98059.50
2018-08-22T03:03:16.406Z,98061.06
2018-08-22T03:05:44.620Z,98063.05
2018-08-22T03:08:12.843Z,98057.37
2018-08-22T03:10:41.054Z,98057.87
2018-08-22T03:13:09.319Z,98051.69
2018-08-22T03:15:37.662Z,98057.05
2018-08-22T03:18:05.863Z,98053.72
2018-08-22T03:20:34.087Z,98055.33
2018-08-22T03:23:02.315Z,98057.44
2018-08-22T03:25:30.568Z,98056.23
2018-08-22T03:27:58.782Z,98055.23
2018-08-22T03:30:27.005Z,98058.21
2018-08-22T03:32:55.210Z,98063.77
2018-08-22T03:35:23.498Z,98066.67
2018-08-22T03:37:51.999Z,98054.59
2018-08-22T03:40:20.283Z,98060.84
2018-08-22T03:42:48.566Z,98052.92
2018-08-22T03:45:16.886Z,98056.10
2018-08-22T03:47:45.162Z,98058.86
2018-08-22T03:50:13.395Z,98057.55
2018-08-22T03:52:41.704Z,98058.85
2018-08-22T03:55:09.899Z,98055.38
2018-08-22T03:57:38.795Z,98062.12
2018-08-22T04:00:07.055Z,98059.86
2018-08-22T04:02:35.375Z,98062.09
2018-08-22T04:05:05.650Z,98061.22
2018-08-22T04:07:33.862Z,98063.97
2018-08-22T04:10:02.056Z,98065.26
2018-08-22T04:12:30.318Z,98076.69
2018-08-22T04:14:58.573Z,98068.80
2018-08-22T04:17:32.683Z,98075.81
2018-08-22T04:20:01.211Z,98068.74
2018-08-22T04:22:29.475Z,98069.02
2018-08-22T04:24:57.687Z,98069.89
2018-08-22T04:27:25.915Z,98073.98
2018-08-22T04:29:54.178Z,98073.55
2018-08-22T04:32:25.542Z,98070.42
2018-08-22T04:34:53.845Z,98073.75
2018-08-22T04:37:22.086Z,98079.02
2018-08-22T04:39:50.551Z,98081.51
2018-08-22T04:42:18.783Z,98086.09
2018-08-22T04:44:47.582Z,98082.72
2018-08-22T04:47:15.787Z,98080.41
2018-08-22T04:49:43.982Z,98088.21
2018-08-22T04:52:12.410Z,98086.43
2018-08-22T04:54:40.599Z,98090.29
2018-08-22T04:57:08.815Z,98082.69
2018-08-22T04:59:37.020Z,98081.83
2018-08-22T05:02:05.217Z,98083.93
2018-08-22T05:04:33.433Z,98087.36
2018-08-22T05:07:01.655Z,98087.20
2018-08-22T05:09:29.853Z,98085.15
2018-08-22T05:11:58.105Z,98084.18
2018-08-22T05:14:26.323Z,98089.43
2018-08-22T05:16:54.535Z,98089.52
2018-08-22T05:19:22.755Z,98089.52
2018-08-22T05:21:50.951Z,98087.77
2018-08-22T05:24:19.158Z,98087.02
2018-08-22T05:26:47.383Z,98086.59
2018-08-22T05:29:15.615Z,98087.91
2018-08-22T05:31:43.839Z,98090.59
2018-08-22T05:34:12.062Z,98082.68
2018-08-22T05:36:40.259Z,98079.98
2018-08-22T05:39:10.618Z,98082.29
2018-08-22T05:41:38.820Z,98081.34
2018-08-22T05:44:07.027Z,98072.13
2018-08-22T05:46:35.227Z,98084.69
2018-08-22T05:49:03.481Z,98084.14
2018-08-22T05:51:31.750Z,98085.08
2018-08-22T05:53:59.987Z,98094.66
2018-08-22T05:56:28.207Z,98086.83
2018-08-22T05:58:56.407Z,98089.16
2018-08-22T06:01:24.619Z,98090.39
2018-08-22T06:03:52.834Z,98099.35
2018-08-22T06:06:21.093Z,98093.45
2018-08-22T06:08:49.290Z,98091.77
2018-08-22T06:11:17.543Z,98098.04
2018-08-22T06:13:45.755Z,98098.93
2018-08-22T06:16:13.955Z,98099.62
2018-08-22T06:18:42.211Z,98102.29
2018-08-22T06:21:10.420Z,98102.84
2018-08-22T06:23:38.607Z,98101.92
2018-08-22T06:26:06.836Z,98096.99
2018-08-22T06:28:35.057Z,98096.21
2018-08-22T06:31:03.262Z,98100.09
2018-08-22T06:33:31.499Z,98096.30
2018-08-22T06:35:59.691Z,98095.52
2018-08-22T06:38:27.919Z,98099.53
2018-08-22T06:40:56.135Z,98099.73
2018-08-22T06:43:24.346Z,98099.73
2018-08-22T06:45:52.542Z,98100.58
2018-08-22T06:48:20.763Z,98105.23
2018-08-22T06:50:48.994Z,98103.47
2018-08-22T06:53:17.235Z,98101.70
2018-08-22T06:55:45.444Z,98101.47
2018-08-22T06:58:13.912Z,98100.73
2018-08-22T07:00:42.118Z,98100.10
2018-08-22T07:03:10.385Z,98099.91
2018-08-22T07:05:38.649Z,98103.34
2018-08-22T07:08:06.869Z,98101.72
2018-08-22T07:10:35.063Z,98101.75
2018-08-22T07:13:03.295Z,98098.11
2018-08-22T07:15:31.612Z,98099.12
2018-08-22T07:17:59.843Z,98094.87
2018-08-22T07:20:28.052Z,98097.11
2018-08-22T07:22:56.258Z,98092.28
2018-08-22T07:25:24.447Z,98094.28
2018-08-22T07:27:52.688Z,98091.23
2018-08-22T07:30:20.887Z,98086.83
2018-08-22T07:32:49.170Z,98084.97
2018-08-22T07:35:17.375Z,98091.77
2018-08-22T07:37:45.566Z,98088.19
2018-08-22T07:40:13.843Z,98092.44
2018-08-22T07:42:42.074Z,98084.48
2018-08-22T07:45:10.311Z,98084.20
2018-08-22T07:47:38.524Z,98079.58
2018-08-22T07:50:06.912Z,98085.63
2018-08-22T07:52:35.083Z,98081.80
2018-08-22T07:55:03.423Z,98083.72
2018-08-22T07:57:31.667Z,98083.20
2018-08-22T08:00:00.114Z,98088.64
2018-08-22T08:02:28.316Z,98089.45
2018-08-22T08:04:56.588Z,98087.96
2018-08-22T08:07:24.818Z,98089.19
2018-08-22T08:09:53.123Z,98081.84
2018-08-22T08:12:25.506Z,98089.67
2018-08-22T08:14:59.319Z,98088.17
2018-08-22T08:17:27.620Z,98090.58
2018-08-22T08:19:55.927Z,98083.45
2018-08-22T08:22:24.196Z,98084.39
2018-08-22T08:24:52.427Z,98084.74
2018-08-22T08:27:20.674Z,98077.89
2018-08-22T08:29:49.519Z,98082.48
2018-08-22T08:32:17.727Z,98084.95
2018-08-22T08:34:46.047Z,98079.89
2018-08-22T08:37:14.283Z,98080.37
2018-08-22T08:39:42.535Z,98076.88
2018-08-22T08:42:10.864Z,98077.47
2018-08-22T08:44:39.188Z,98077.48
2018-08-22T08:47:07.387Z,98080.69
2018-08-22T08:49:38.448Z,98074.89
2018-08-22T08:52:06.638Z,98073.66
2018-08-22T08:54:34.904Z,98072.03
2018-08-22T08:57:03.155Z,98072.16
2018-08-22T08:59:31.388Z,98071.58
2018-08-22T09:01:59.650Z,98071.69
2018-08-22T09:04:27.955Z,98072.67
2018-08-22T09:06:56.203Z,98068.06
2018-08-22T09:09:24.511Z,98065.84
2018-08-22T09:11:59.829Z,98065.84
2018-08-22T09:14:28.474Z,98069.78
2018-08-22T09:16:57.394Z,98062.69
2018-08-22T09:19:25.635Z,98065.73
2018-08-22T09:21:53.872Z,98066.95
2018-08-22T09:24:22.109Z,98063.66
2018-08-22T09:26:50.335Z,98057.44
2018-08-22T09:29:18.535Z,98057.94
2018-08-22T09:31:46.798Z,98057.94
2018-08-22T09:34:15.030Z,98052.10
2018-08-22T09:36:43.271Z,98047.38
2018-08-22T09:39:12.958Z,98042.05
2018-08-22T09:41:41.451Z,98045.47
2018-08-22T09:44:09.692Z,98043.27
2018-08-22T09:46:38.986Z,98040.28
2018-08-22T09:49:07.244Z,98044.81
2018-08-22T09:51:35.523Z,98032.58
2018-08-22T09:54:03.750Z,98031.86
2018-08-22T09:56:32.234Z,98029.48
2018-08-22T09:59:00.490Z,98026.80
2018-08-22T10:01:33.877Z,98028.67
2018-08-22T10:04:02.635Z,98025.22
2018-08-22T10:06:40.742Z,98016.75
2018-08-22T10:09:13.927Z,98018.21
2018-08-22T10:11:42.216Z,98014.31
2018-08-22T10:14:10.471Z,98014.34
2018-08-22T10:16:38.771Z,98005.79
2018-08-22T10:19:07.123Z,97999.27
2018-08-22T10:21:35.370Z,98001.32
2018-08-22T10:24:03.600Z,98001.25
2018-08-22T10:26:32.894Z,97997.82
2018-08-22T10:29:32.111Z,97998.41
2018-08-22T10:32:00.468Z,97993.60
2018-08-22T10:34:28.771Z,97989.55
2018-08-22T10:36:57.036Z,97989.55
2018-08-22T10:39:25.330Z,97990.05
2018-08-22T10:41:53.560Z,97988.47
2018-08-22T10:44:21.810Z,97984.86
2018-08-22T10:46:50.015Z,97978.98
2018-08-22T10:49:18.243Z,97985.00
2018-08-22T10:51:46.481Z,97976.98
2018-08-22T10:54:14.725Z,97972.20
2018-08-22T10:56:42.958Z,97965.14
2018-08-22T10:59:11.173Z,97964.51
2018-08-22T11:01:39.362Z,97961.25
2018-08-22T11:04:07.575Z,97963.42
2018-08-22T11:06:35.783Z,97954.99
2018-08-22T11:09:06.240Z,97956.42
2018-08-22T11:11:34.527Z,97956.22
2018-08-22T11:14:02.783Z,97945.57
2018-08-22T11:16:30.979Z,97945.97
2018-08-22T11:18:59.310Z,97949.82
2018-08-22T11:21:38.971Z,97947.35
2018-08-22T11:24:18.533Z,97950.14
2018-08-22T11:26:57.959Z,97954.55
2018-08-22T11:29:37.435Z,97942.39
2018-08-22T11:32:17.060Z,97944.47
2018-08-22T11:34:45.900Z,97940.00
2018-08-22T11:37:15.191Z,97939.79
2018-08-22T11:39:45.274Z,97939.38
2018-08-22T11:42:13.499Z,97940.73
2018-08-22T11:44:41.718Z,97933.80
2018-08-22T11:47:09.912Z,97937.26
2018-08-22T11:49:38.126Z,97932.92
2018-08-22T11:52:06.372Z,97934.68
2018-08-22T11:54:34.551Z,97926.23
2018-08-22T11:57:02.947Z,97934.90
2018-08-22T11:59:31.322Z,97929.89
2018-08-22T12:01:59.577Z,97930.64
2018-08-22T12:04:27.778Z,97921.18
2018-08-22T12:06:56.035Z,97917.78
2018-08-22T12:09:24.311Z,97913.11
2018-08-22T12:11:52.499Z,97914.22
2018-08-22T12:14:20.779Z,97910.59
2018-08-22T12:16:48.985Z,97912.13
2018-08-22T12:19:17.183Z,97906.55
2018-08-22T12:21:45.382Z,97900.28
2018-08-22T12:24:13.588Z,97905.52
2018-08-22T12:26:41.794Z,97900.41
2018-08-22T12:29:10.186Z,97900.78
2018-08-22T12:31:38.424Z,97903.68
2018-08-22T12:34:06.644Z,97899.77
2018-08-22T12:36:34.847Z,97901.41
2018-08-22T12:39:03.091Z,97899.48
2018-08-22T12:41:31.401Z,97897.10
2018-08-22T12:43:59.591Z,97893.52
2018-08-22T12:46:27.779Z,97895.55
2018-08-22T12:48:55.975Z,97895.41
2018-08-22T12:51:24.181Z,97895.08
2018-08-22T12:53:52.375Z,97892.48
2018-08-22T12:56:20.607Z,97888.88
2018-08-22T12:58:48.799Z,97896.52
2018-08-22T13:01:16.986Z,97887.34
2018-08-22T13:03:45.179Z,97896.44
2018-08-22T13:06:13.377Z,97890.39
2018-08-22T13:08:41.589Z,97879.44
2018-08-22T13:11:09.893Z,97878.97
2018-08-22T13:13:37.996Z,97874.13
2018-08-22T13:16:06.198Z,97873.03
2018-08-22T13:18:34.435Z,97874.05
2018-08-22T13:21:02.631Z,97867.91
2018-08-22T13:23:30.840Z,97867.78
2018-08-22T13:25:59.027Z,97863.23
2018-08-22T13:28:27.231Z,97863.06
2018-08-22T13:30:55.432Z,97859.72
2018-08-22T13:33:23.642Z,97853.48
2018-08-22T13:35:51.838Z,97853.52
2018-08-22T13:38:20.035Z,97855.77
2018-08-22T13:40:48.235Z,97850.21
2018-08-22T13:43:16.475Z,97841.91
2018-08-22T13:45:44.672Z,97846.72
2018-08-22T13:48:12.855Z,97839.30
2018-08-22T13:50:41.072Z,97845.91
2018-08-22T13:53:09.278Z,97844.86
2018-08-22T13:55:37.555Z,97838.02
2018-08-22T13:58:05.768Z,97842.22
2018-08-22T14:00:33.967Z,97840.58
2018-08-22T14:03:02.187Z,97830.23
2018-08-22T14:05:30.400Z,97834.98
2018-08-22T14:07:58.811Z,97829.76
2018-08-22T14:10:27.019Z,97824.78
2018-08-22T14:12:55.258Z,97826.91
2018-08-22T14:15:23.512Z,97828.48
2018-08-22T14:17:51.710Z,97824.89
2018-08-22T14:20:19.919Z,97819.59
2018-08-22T14:22:48.122Z,97822.69
2018-08-22T14:25:16.325Z,97813.30
2018-08-22T14:27:44.651Z,97806.57
2018-08-22T14:30:12.854Z,97803.30
2018-08-22T14:32:41.052Z,97798.51
2018-08-22T14:35:09.286Z,97802.73
2018-08-22T14:37:37.586Z,97797.57
2018-08-22T14:40:05.823Z,97807.92
2018-08-22T14:42:34.008Z,97812.61
2018-08-22T14:45:02.259Z,97811.32
2018-08-22T14:47:30.431Z,97817.17
2018-08-22T14:50:10.687Z,97819.45
2018-08-22T14:52:39.003Z,97818.41
2018-08-22T14:55:07.255Z,97821.82
2018-08-22T14:57:35.459Z,97814.41
2018-08-22T15:00:03.711Z,97806.95
2018-08-22T15:02:32.075Z,97803.28
2018-08-22T15:05:00.233Z,97798.59
2018-08-22T15:07:28.447Z,97802.52
2018-08-22T15:09:56.655Z,97802.27
2018-08-22T15:12:24.907Z,97801.23
2018-08-22T15:14:53.198Z,97798.93
2018-08-22T15:17:21.402Z,97788.23
2018-08-22T15:19:49.604Z,97790.13
2018-08-22T15:22:17.879Z,97795.83
2018-08-22T15:24:46.099Z,97799.67
2018-08-22T15:27:14.322Z,97800.18
2018-08-22T15:29:42.506Z,97801.05
2018-08-22T15:32:10.730Z,97800.61
2018-08-22T15:34:47.619Z,97803.12
2018-08-22T15:37:16.033Z,97815.80
2018-08-22T15:42:46.371Z,97822.97
2018-08-22T15:45:15.097Z,97830.50
2018-08-22T15:47:43.428Z,97830.68
2018-08-22T15:50:11.995Z,97830.83
2018-08-22T15:52:40.271Z,97822.31
2018-08-22T15:55:12.019Z,97824.64
2018-08-22T15:57:55.731Z,97822.06
2018-08-22T16:00:32.802Z,97811.47
2018-08-22T16:03:02.393Z,97816.75
2018-08-22T16:05:30.724Z,97807.42
2018-08-22T16:07:59.242Z,97805.94
2018-08-22T16:10:27.551Z,97800.95
2018-08-22T16:12:55.823Z,97806.34
2018-08-22T16:15:25.235Z,97814.78
2018-08-22T16:17:54.367Z,97826.73
2018-08-22T16:20:26.936Z,97826.46
2018-08-22T16:22:55.359Z,97821.97
2018-08-22T16:25:30.226Z,97822.48
2018-08-22T16:27:58.547Z,97819.82
2018-08-22T16:30:26.762Z,97812.63
2018-08-22T16:32:55.735Z,97812.30
2018-08-22T16:35:23.918Z,97810.00
2018-08-22T16:38:05.562Z,97813.88
2018-08-22T16:40:36.427Z,97813.69
2018-08-22T16:43:04.752Z,97823.86
2018-08-22T16:45:39.974Z,97826.68
2018-08-22T16:48:08.335Z,97822.84
2018-08-22T16:50:36.539Z,97819.38
2018-08-22T16:53:04.762Z,97812.02
2018-08-22T16:55:33.162Z,97815.07
2018-08-22T16:58:01.502Z,97810.09
2018-08-22T17:00:36.366Z,97805.01
2018-08-22T17:03:05.903Z,97800.94
2018-08-22T17:05:34.302Z,97800.63
2018-08-22T17:08:02.532Z,97799.25
2018-08-22T17:11:05.655Z,97799.75
2018-08-22T17:13:45.836Z,97804.23
2018-08-22T17:16:14.097Z,97797.45
2018-08-22T17:18:42.296Z,97796.48
2018-08-22T17:21:10.802Z,97797.52
2018-08-22T17:23:39.292Z,97790.95
2018-08-22T17:26:12.500Z,97796.61
2018-08-22T17:28:42.610Z,97799.34
2018-08-22T17:31:11.567Z,97793.69
2018-08-22T17:33:47.191Z,97793.34
2018-08-22T17:36:15.463Z,97796.78
2018-08-22T17:38:44.528Z,97797.22
2018-08-22T17:41:13.074Z,97795.77
2018-08-22T17:43:57.814Z,97801.72
2018-08-22T17:46:28.114Z,97800.78
2018-08-22T17:48:56.478Z,97787.30
2018-08-22T17:51:24.696Z,97803.41
2018-08-22T17:53:52.898Z,97802.91
2018-08-22T17:56:22.782Z,97803.88
2018-08-22T17:58:52.116Z,97806.91
2018-08-22T18:01:20.600Z,97803.91
2018-08-22T18:03:48.800Z,97806.36
2018-08-22T18:06:17.345Z,97802.13
2018-08-22T18:08:45.531Z,97802.58
2018-08-22T18:11:13.744Z,97808.91
2018-08-22T18:13:42.391Z,97807.47
2018-08-22T18:16:17.078Z,97815.78
2018-08-22T18:18:45.367Z,97814.47
2018-08-22T18:21:13.611Z,97818.20
2018-08-22T18:23:52.412Z,97821.70
2018-08-22T18:26:20.691Z,97826.02
2018-08-22T18:28:48.894Z,97824.03
2018-08-22T18:31:17.155Z,97829.36
2018-08-22T18:33:57.266Z,97830.72
2018-08-22T18:36:26.479Z,97831.84
2018-08-22T18:39:02.667Z,97825.99
2018-08-22T18:41:30.889Z,97832.90
2018-08-22T18:43:59.102Z,97827.73
2018-08-22T18:46:27.325Z,97832.02
2018-08-22T18:48:55.581Z,97836.69
2018-08-22T18:51:23.795Z,97840.34
2018-08-22T18:53:52.067Z,97846.97
2018-08-22T18:56:21.700Z,97841.52
2018-08-22T18:58:49.995Z,97845.94
2018-08-22T19:01:18.738Z,97852.92
2018-08-22T19:03:47.010Z,97856.67
2018-08-22T19:06:15.311Z,97855.58
2018-08-22T19:08:43.519Z,97860.33
2018-08-22T19:11:11.863Z,97853.11
2018-08-22T19:13:40.032Z,97863.69
2018-08-22T19:16:09.611Z,97859.92
2018-08-22T19:18:37.937Z,97852.92
2018-08-22T19:21:07.427Z,97855.62
2018-08-22T19:23:35.731Z,97858.52
2018-08-22T19:26:04.955Z,97858.18
2018-08-22T19:29:06.178Z,97862.41
2018-08-22T19:31:35.292Z,97864.84
2018-08-22T19:34:03.552Z,97861.68
2018-08-22T19:36:31.843Z,97863.12
2018-08-22T19:39:00.154Z,97864.62
2018-08-22T19:41:32.448Z,97870.46
2018-08-22T19:44:00.687Z,97870.73
2018-08-22T19:46:29.010Z,97872.69
2018-08-22T19:48:57.351Z,97866.80
2018-08-22T19:51:25.535Z,97864.65
2018-08-22T19:54:02.178Z,97869.27
2018-08-22T19:56:30.899Z,97872.75
2018-08-22T19:58:59.350Z,97866.93
2018-08-22T20:01:30.658Z,97870.56
2018-08-22T20:03:59.064Z,97868.34
2018-08-22T20:06:27.514Z,97868.55
2018-08-22T20:08:57.219Z,97872.20
2018-08-22T20:11:25.826Z,97870.41
2018-08-22T20:13:58.594Z,97876.41
2018-08-22T20:16:26.862Z,97877.69
2018-08-22T20:18:57.251Z,97878.16
2018-08-22T20:21:30.066Z,97880.69
2018-08-22T20:23:58.532Z,97875.11
2018-08-22T20:26:27.449Z,97875.50
2018-08-22T20:28:57.735Z,97877.59
2018-08-22T20:31:26.032Z,97875.86
2018-08-22T20:34:02.508Z,97874.30
2018-08-22T20:36:31.095Z,97876.09
2018-08-22T20:39:00.933Z,97877.91
2018-08-22T20:41:29.207Z,97874.66
2018-08-22T20:43:57.485Z,97871.04
2018-08-22T20:46:25.806Z,97869.88
2018-08-22T20:48:54.055Z,97871.31
2018-08-22T20:51:22.500Z,97873.92
2018-08-22T20:53:56.415Z,97866.66
2018-08-22T20:56:24.745Z,97873.09
2018-08-22T20:58:52.926Z,97870.92
2018-08-22T21:01:21.475Z,97871.51
2018-08-22T21:03:50.716Z,97865.51
2018-08-22T21:06:18.950Z,97865.17
2018-08-22T21:08:47.399Z,97872.42
2018-08-22T21:11:15.655Z,97866.62
2018-08-22T21:17:03.960Z,97869.23
2018-08-22T21:19:32.227Z,97867.62
2018-08-22T21:22:00.779Z,97859.59
2018-08-22T21:24:29.128Z,97865.00
2018-08-22T21:26:57.372Z,97865.39
2018-08-22T21:29:25.724Z,97864.20
2018-08-22T21:31:53.958Z,97864.80
2018-08-22T21:34:23.628Z,97866.03
2018-08-22T21:36:51.877Z,97861.98
2018-08-22T21:39:25.348Z,97861.23
2018-08-22T21:41:53.879Z,97862.05
2018-08-22T21:44:22.927Z,97860.07
2018-08-22T21:46:57.479Z,97863.92
2018-08-22T21:49:25.855Z,97863.52
2018-08-22T21:51:56.905Z,97864.92
2018-08-22T21:54:25.277Z,97860.73
2018-08-22T21:56:53.505Z,97864.33
2018-08-22T21:59:21.742Z,97861.53
2018-08-22T22:01:55.362Z,97862.54
2018-08-22T22:04:29.589Z,97857.31
2018-08-22T22:06:57.874Z,97857.71
2018-08-22T22:09:26.099Z,97859.34
2018-08-22T22:11:57.463Z,97858.33
2018-08-22T22:14:26.566Z,97852.54
2018-08-22T22:16:56.654Z,97859.14
2018-08-22T22:19:25.979Z,97856.14
2018-08-22T22:21:54.210Z,97857.36
2018-08-22T22:24:22.536Z,97859.37
2018-08-22T22:26:50.747Z,97851.72
2018-08-22T22:29:19.055Z,97854.14
2018-08-22T22:31:47.288Z,97859.77
2018-08-22T22:34:15.542Z,97859.56
2018-08-22T22:36:43.779Z,97859.16
2018-08-22T22:39:44.586Z,97858.56
2018-08-22T22:42:29.555Z,97859.37
2018-08-22T22:44:59.606Z,97857.97
2018-08-22T22:47:30.951Z,97859.78
2018-08-22T22:49:59.758Z,97855.94
2018-08-22T22:52:33.418Z,97855.16
2018-08-22T22:55:02.940Z,97853.96
2018-08-22T22:57:33.452Z,97853.94
2018-08-22T23:00:02.639Z,97849.14
2018-08-22T23:02:31.502Z,97849.14
2018-08-22T23:05:00.546Z,97852.35
2018-08-22T23:07:33.151Z,97848.73
2018-08-22T23:10:03.670Z,97850.55
2018-08-22T23:12:47.141Z,97852.13
2018-08-22T23:15:17.749Z,97852.55
2018-08-22T23:17:48.187Z,97852.36
2018-08-22T23:20:34.670Z,97853.70
2018-08-22T23:23:03.355Z,97849.91
2018-08-22T23:25:31.917Z,97850.09
2018-08-22T23:28:00.116Z,97848.09
2018-08-22T23:30:37.324Z,97850.31
2018-08-22T23:33:06.417Z,97848.69
2018-08-22T23:35:35.623Z,97851.12
2018-08-22T23:38:05.367Z,97845.13
2018-08-22T23:40:34.763Z,97841.53
2018-08-22T23:43:02.982Z,97846.53
2018-08-22T23:45:31.318Z,97847.69
2018-08-22T23:47:59.571Z,97849.71
2018-08-22T23:50:38.162Z,97849.72
2018-08-22T23:53:06.511Z,97849.49
2018-08-22T23:55:34.782Z,97842.31
2018-08-22T23:58:02.990Z,97847.50
